Time;durP1;ratioP1;P1;durP2;ratioP2;P2;SDS_P1;SDS_P2;PMS_P1;PMS_P2;Temp;Humidity;BMP_temperature;BMP_pressure;BME280_temperature;BME280_humidity;BME280_pressure;Samples;Min_cycle;Max_cycle;Signal;HPM_P1;HPM_P2
2023/11/13 00:01:34;;;;;;;1.92;0.80;;;10.30;99.90;;;;;;6230800;23;20098;-72
2023/11/13 00:04:01;;;;;;;2.42;0.68;;;10.30;99.90;;;;;;6205604;23;20062;-72
2023/11/13 00:06:27;;;;;;;1.20;0.77;;;10.30;99.90;;;;;;6230533;23;20028;-72
2023/11/13 00:08:54;;;;;;;1.60;0.70;;;10.40;99.90;;;;;;6231355;23;20082;-72
2023/11/13 00:11:21;;;;;;;1.38;0.70;;;10.40;99.90;;;;;;6232273;23;20032;-72
2023/11/13 00:13:48;;;;;;;1.67;0.57;;;10.40;99.90;;;;;;6232617;23;20300;-72
2023/11/13 00:16:15;;;;;;;1.30;0.57;;;10.50;99.90;;;;;;6232380;23;20077;-72
2023/11/13 00:18:42;;;;;;;1.05;0.77;;;10.50;99.90;;;;;;6205300;23;20491;-72
2023/11/13 00:21:09;;;;;;;0.60;0.57;;;10.50;99.90;;;;;;6229335;23;20451;-72
2023/11/13 00:23:37;;;;;;;0.73;0.50;;;10.50;99.90;;;;;;6205345;23;20251;-72
2023/11/13 00:26:04;;;;;;;1.88;0.95;;;10.50;99.90;;;;;;6231660;23;20020;-72
2023/11/13 00:28:31;;;;;;;1.63;0.90;;;10.60;99.90;;;;;;6205924;23;20024;-72
2023/11/13 00:30:58;;;;;;;1.40;0.80;;;10.60;99.90;;;;;;6232447;23;20025;-72
2023/11/13 00:33:25;;;;;;;2.78;0.82;;;10.60;99.90;;;;;;6230943;23;20021;-72
2023/11/13 00:35:52;;;;;;;1.42;0.63;;;10.60;99.90;;;;;;6204057;23;20035;-72
2023/11/13 00:38:19;;;;;;;1.15;0.60;;;10.70;99.90;;;;;;6204679;23;20043;-72
2023/11/13 00:40:46;;;;;;;2.78;0.85;;;10.70;99.90;;;;;;6230586;23;20024;-73
2023/11/13 00:43:14;;;;;;;1.92;0.60;;;10.70;99.90;;;;;;6204962;23;20447;-72
2023/11/13 00:45:41;;;;;;;1.90;0.93;;;10.70;99.90;;;;;;6230257;23;20024;-72
2023/11/13 00:48:07;;;;;;;2.50;0.90;;;10.70;99.90;;;;;;6206094;23;20367;-72
2023/11/13 00:50:34;;;;;;;1.83;0.73;;;10.80;99.90;;;;;;6231015;23;20534;-72
2023/11/13 00:53:01;;;;;;;2.05;0.80;;;10.80;99.90;;;;;;6230024;23;20020;-72
2023/11/13 00:55:28;;;;;;;1.70;0.70;;;10.80;99.90;;;;;;6230292;23;20031;-72
2023/11/13 00:57:55;;;;;;;2.83;0.70;;;10.80;99.90;;;;;;6231101;23;20020;-72
2023/11/13 01:00:22;;;;;;;1.00;0.60;;;10.80;99.90;;;;;;6205189;23;20086;-72
2023/11/13 01:02:49;;;;;;;1.17;0.70;;;10.80;99.90;;;;;;6233077;23;20070;-72
2023/11/13 01:05:16;;;;;;;1.20;0.68;;;10.90;99.90;;;;;;6232391;23;20086;-72
2023/11/13 01:07:43;;;;;;;1.00;0.40;;;10.90;99.90;;;;;;6235966;23;20024;-72
2023/11/13 01:10:10;;;;;;;0.77;0.47;;;10.90;99.90;;;;;;6236286;23;20031;-72
2023/11/13 01:12:37;;;;;;;1.88;0.82;;;10.90;99.90;;;;;;6238355;23;20456;-72
2023/11/13 01:15:06;;;;;;;1.40;0.70;;;10.90;99.90;;;;;;6236072;23;20301;-72
2023/11/13 01:17:33;;;;;;;1.13;0.50;;;10.90;99.90;;;;;;6236710;23;20164;-72
2023/11/13 01:20:01;;;;;;;0.85;0.50;;;10.90;99.90;;;;;;6210044;23;20356;-72
2023/11/13 01:22:27;;;;;;;0.93;0.50;;;11.00;99.90;;;;;;6238122;23;20085;-72
2023/11/13 01:24:54;;;;;;;0.55;0.55;;;11.00;99.90;;;;;;6236659;23;20335;-72
2023/11/13 01:27:21;;;;;;;0.77;0.63;;;11.00;99.90;;;;;;6238054;23;20481;-72
2023/11/13 01:29:48;;;;;;;1.25;0.60;;;11.00;99.90;;;;;;6237142;23;20031;-72
2023/11/13 01:32:15;;;;;;;0.60;0.45;;;11.00;99.90;;;;;;6235887;23;20020;-72
2023/11/13 01:34:42;;;;;;;0.85;0.57;;;11.00;99.90;;;;;;6236715;23;20295;-72
2023/11/13 01:37:09;;;;;;;0.60;0.40;;;11.00;99.90;;;;;;6237432;23;20070;-72
2023/11/13 01:39:36;;;;;;;1.52;0.60;;;11.10;99.90;;;;;;6237518;23;20063;-72
2023/11/13 01:42:03;;;;;;;0.40;0.30;;;11.10;99.90;;;;;;6238156;23;20200;-72
2023/11/13 01:44:30;;;;;;;1.10;0.47;;;11.10;99.90;;;;;;6234993;23;20268;-72
2023/11/13 01:46:57;;;;;;;1.23;0.40;;;11.10;99.90;;;;;;6211589;23;20095;-72
2023/11/13 01:49:24;;;;;;;0.65;0.45;;;11.10;99.90;;;;;;6210651;23;20024;-72
2023/11/13 01:51:51;;;;;;;1.42;0.60;;;11.10;99.90;;;;;;6209652;23;20454;-72
2023/11/13 01:54:18;;;;;;;1.23;0.50;;;11.10;99.90;;;;;;6210597;23;20020;-72
2023/11/13 01:56:44;;;;;;;0.90;0.32;;;11.10;99.90;;;;;;6235922;23;20027;-72
2023/11/13 01:59:12;;;;;;;0.50;0.50;;;11.10;99.90;;;;;;6211252;23;20020;-72
2023/11/13 02:01:40;;;;;;;0.40;0.30;;;11.00;99.90;;;;;;6185566;23;20024;-72
2023/11/13 02:04:07;;;;;;;1.15;0.50;;;11.00;99.90;;;;;;6210688;23;20395;-72
2023/11/13 02:06:33;;;;;;;0.43;0.28;;;11.00;99.90;;;;;;6233931;23;20055;-72
2023/11/13 02:09:00;;;;;;;0.52;0.25;;;11.00;1.00;;;;;;6185481;23;20091;-72
2023/11/13 02:11:28;;;;;;;0.30;0.20;;;10.90;1.00;;;;;;6235372;23;20051;-72
2023/11/13 02:13:55;;;;;;;0.45;0.32;;;10.90;99.90;;;;;;6210764;23;20082;-72
2023/11/13 02:16:22;;;;;;;0.60;0.40;;;10.90;99.90;;;;;;6235672;23;20105;-72
2023/11/13 02:18:48;;;;;;;0.98;0.40;;;10.80;99.90;;;;;;6210217;23;20024;-71
2023/11/13 02:21:15;;;;;;;0.40;0.30;;;10.80;99.90;;;;;;6233419;23;20026;-71
2023/11/13 02:23:42;;;;;;;0.30;0.30;;;10.70;57.30;;;;;;6235605;23;20024;-71
2023/11/13 02:26:15;;;;;;;0.55;0.32;;;10.70;38.40;;;;;;6210346;23;20020;-72
2023/11/13 02:28:42;;;;;;;0.65;0.32;;;10.70;48.70;;;;;;6237614;23;20020;-72
2023/11/13 02:31:09;;;;;;;0.20;0.20;;;10.70;15.90;;;;;;6237009;23;20455;-72
2023/11/13 02:33:36;;;;;;;0.45;0.30;;;10.60;99.90;;;;;;6236443;23;20020;-72
2023/11/13 02:36:03;;;;;;;0.30;0.30;;;10.60;99.90;;;;;;6207923;23;20028;-72
2023/11/13 02:38:30;;;;;;;1.05;0.35;;;10.60;99.90;;;;;;6209616;23;20020;-72
2023/11/13 02:40:58;;;;;;;0.60;0.32;;;10.50;99.90;;;;;;6239436;23;20172;-72
2023/11/13 02:43:24;;;;;;;0.30;0.30;;;10.60;99.90;;;;;;6212486;23;20035;-71
2023/11/13 02:45:52;;;;;;;0.30;0.20;;;10.50;99.90;;;;;;6236483;23;20024;-72
2023/11/13 02:48:19;;;;;;;0.10;0.10;;;10.50;1.00;;;;;;6236213;23;20596;-71
2023/11/13 02:50:46;;;;;;;0.20;0.20;;;10.50;1.00;;;;;;6183843;23;20100;-72
2023/11/13 02:53:15;;;;;;;0.15;0.13;;;10.50;1.00;;;;;;6210424;23;20024;-72
2023/11/13 02:55:42;;;;;;;0.70;0.13;;;10.50;1.00;;;;;;6237071;23;20039;-72
2023/11/13 02:58:09;;;;;;;0.30;0.22;;;10.50;10.20;;;;;;6235458;23;20020;-72
2023/11/13 03:00:36;;;;;;;0.52;0.30;;;10.50;19.60;;;;;;6235338;23;20027;-72
2023/11/13 03:03:03;;;;;;;0.40;0.20;;;10.50;8.50;;;;;;6210273;23;20074;-72
2023/11/13 03:05:30;;;;;;;0.63;0.30;;;10.50;45.40;;;;;;6234561;23;20447;-72
2023/11/13 03:07:57;;;;;;;0.68;0.40;;;10.50;90.00;;;;;;6210260;23;20032;-72
2023/11/13 03:10:24;;;;;;;0.50;0.30;;;10.40;99.90;;;;;;6210161;23;20470;-72
2023/11/13 03:12:52;;;;;;;0.52;0.40;;;10.50;99.90;;;;;;6235655;23;20026;-72
2023/11/13 03:15:19;;;;;;;0.70;0.30;;;10.40;99.90;;;;;;6236970;23;20438;-72
2023/11/13 03:17:46;;;;;;;0.80;0.50;;;10.40;99.90;;;;;;6237509;23;20028;-72
2023/11/13 03:20:13;;;;;;;0.73;0.30;;;10.40;99.90;;;;;;6235612;23;20039;-72
2023/11/13 03:22:40;;;;;;;1.13;0.63;;;10.40;99.90;;;;;;6235463;23;20031;-72
2023/11/13 03:25:08;;;;;;;0.45;0.32;;;10.40;99.90;;;;;;6209629;23;20020;-72
2023/11/13 03:27:35;;;;;;;0.70;0.35;;;10.40;99.90;;;;;;6236018;23;20113;-72
2023/11/13 03:30:03;;;;;;;1.67;0.50;;;10.50;99.90;;;;;;6237589;23;20016;-72
2023/11/13 03:32:30;;;;;;;0.63;0.40;;;10.40;99.90;;;;;;6237018;23;20394;-72
2023/11/13 03:34:57;;;;;;;0.77;0.50;;;10.50;99.90;;;;;;6234252;23;20400;-71
2023/11/13 03:37:24;;;;;;;0.60;0.50;;;10.40;99.90;;;;;;6209722;23;20048;-72
2023/11/13 03:39:51;;;;;;;0.88;0.55;;;10.40;99.90;;;;;;6236556;23;20085;-72
2023/11/13 03:42:18;;;;;;;1.25;0.55;;;10.40;99.90;;;;;;6235274;23;20030;-72
2023/11/13 03:44:45;;;;;;;0.90;0.35;;;10.40;99.90;;;;;;6210256;23;20050;-72
2023/11/13 03:47:12;;;;;;;0.85;0.40;;;10.40;99.90;;;;;;6237351;23;20359;-72
2023/11/13 03:49:39;;;;;;;1.10;0.50;;;10.50;99.90;;;;;;6235900;23;20017;-72
2023/11/13 03:52:06;;;;;;;0.50;0.25;;;10.50;99.90;;;;;;6235238;23;20020;-72
2023/11/13 03:54:33;;;;;;;1.30;0.50;;;10.40;99.90;;;;;;6234580;23;20020;-71
2023/11/13 03:57:00;;;;;;;1.92;1.23;;;10.40;99.90;;;;;;6235469;23;20052;-72
2023/11/13 03:59:27;;;;;;;0.50;0.30;;;10.40;99.90;;;;;;6234685;23;20035;-72
2023/11/13 04:01:53;;;;;;;1.95;0.63;;;10.40;99.90;;;;;;6235745;23;20082;-72
2023/11/13 04:04:20;;;;;;;0.50;0.22;;;10.40;99.90;;;;;;6210394;23;20024;-72
2023/11/13 04:06:49;;;;;;;1.65;0.50;;;10.40;99.90;;;;;;6234213;23;20101;-72
2023/11/13 04:09:16;;;;;;;0.43;0.30;;;10.40;99.90;;;;;;6237006;23;20020;-72
2023/11/13 04:11:43;;;;;;;1.55;0.57;;;10.40;99.90;;;;;;6210182;23;20029;-72
2023/11/13 04:14:10;;;;;;;0.28;0.20;;;10.40;99.90;;;;;;6210454;23;20086;-72
2023/11/13 04:16:38;;;;;;;1.02;0.35;;;10.40;99.90;;;;;;6209879;23;20031;-72
2023/11/13 04:19:07;;;;;;;0.55;0.30;;;10.40;1.00;;;;;;6210545;23;20017;-72
2023/11/13 04:21:34;;;;;;;0.57;0.30;;;10.40;1.00;;;;;;6235352;23;20084;-72
2023/11/13 04:24:01;;;;;;;0.43;0.20;;;10.40;1.00;;;;;;6236316;23;20078;-72
2023/11/13 04:26:29;;;;;;;0.22;0.22;;;10.40;1.00;;;;;;6234381;23;20020;-72
2023/11/13 04:28:56;;;;;;;0.35;0.32;;;10.50;1.00;;;;;;6237074;23;20028;-72
2023/11/13 04:31:23;;;;;;;0.55;0.50;;;10.50;1.00;;;;;;6209757;23;20027;-72
2023/11/13 04:33:50;;;;;;;0.17;0.15;;;10.50;1.00;;;;;;6237054;23;20028;-72
2023/11/13 04:36:16;;;;;;;0.25;0.25;;;10.50;1.00;;;;;;6184326;23;20031;-72
2023/11/13 04:38:43;;;;;;;0.35;0.10;;;10.50;1.00;;;;;;6237289;23;20039;-72
2023/11/13 04:41:15;;;;;;;0.30;0.30;;;10.50;1.00;;;;;;6237967;23;20409;-72
2023/11/13 04:43:43;;;;;;;0.20;0.20;;;10.50;1.00;;;;;;6237039;23;20319;-72
2023/11/13 04:46:11;;;;;;;0.30;0.30;;;10.50;1.00;;;;;;6212031;23;20066;-72
2023/11/13 04:48:39;;;;;;;0.47;0.30;;;10.50;1.00;;;;;;6239411;23;20058;-72
2023/11/13 04:51:06;;;;;;;0.45;0.20;;;10.50;1.00;;;;;;6235944;23;20051;-73
2023/11/13 04:53:33;;;;;;;0.20;0.20;;;10.60;1.00;;;;;;6238658;23;20016;-73
2023/11/13 04:55:59;;;;;;;0.38;0.20;;;10.60;1.00;;;;;;6238596;23;20031;-72
2023/11/13 04:58:26;;;;;;;0.10;0.10;;;10.60;1.00;;;;;;6239160;23;20024;-72
2023/11/13 05:00:53;;;;;;;0.20;0.20;;;10.60;1.00;;;;;;6236707;23;20020;-72
2023/11/13 05:03:20;;;;;;;0.10;0.10;;;10.70;1.00;;;;;;6238490;23;20024;-72
2023/11/13 05:05:47;;;;;;;0.00;0.00;;;10.70;1.00;;;;;;6236124;23;20174;-72
2023/11/13 05:08:14;;;;;;;0.10;0.10;;;10.70;1.00;;;;;;6237854;23;20028;-72
2023/11/13 05:10:41;;;;;;;0.05;0.05;;;10.70;1.00;;;;;;6211840;23;20382;-72
2023/11/13 05:13:08;;;;;;;0.10;0.10;;;10.80;1.00;;;;;;6236754;23;20494;-72
2023/11/13 05:15:35;;;;;;;0.10;0.10;;;10.80;8.80;;;;;;6238811;23;20020;-72
2023/11/13 05:18:01;;;;;;;0.10;0.10;;;10.80;18.70;;;;;;6239058;23;20016;-72
2023/11/13 05:20:29;;;;;;;0.20;0.20;;;10.80;29.10;;;;;;6236841;23;20031;-72
2023/11/13 05:22:55;;;;;;;0.10;0.10;;;10.80;43.40;;;;;;6236084;23;20020;-72
2023/11/13 05:25:22;;;;;;;0.00;0.00;;;10.90;50.20;;;;;;6238478;23;20024;-72
2023/11/13 05:27:49;;;;;;;0.47;0.20;;;10.90;64.40;;;;;;6211843;23;20103;-72
2023/11/13 05:30:16;;;;;;;0.10;0.10;;;10.90;76.50;;;;;;6212051;23;20020;-73
2023/11/13 05:32:44;;;;;;;0.10;0.10;;;11.00;88.40;;;;;;6211690;23;20027;-72
2023/11/13 05:35:11;;;;;;;0.25;0.10;;;11.00;93.20;;;;;;6210637;23;20016;-72
2023/11/13 05:37:38;;;;;;;0.10;0.10;;;11.00;99.60;;;;;;6211140;23;20054;-72
2023/11/13 05:40:05;;;;;;;0.10;0.10;;;11.10;99.90;;;;;;6211117;23;20027;-72
2023/11/13 05:42:32;;;;;;;0.00;0.00;;;11.10;99.90;;;;;;6238879;23;20042;-72
2023/11/13 05:44:59;;;;;;;0.10;0.10;;;11.20;99.90;;;;;;6211014;23;20020;-72
2023/11/13 05:47:27;;;;;;;0.10;0.10;;;11.20;99.90;;;;;;6225464;23;20067;-72
2023/11/13 05:49:54;;;;;;;0.00;0.00;;;11.20;99.90;;;;;;6206043;23;20020;-72
2023/11/13 05:52:21;;;;;;;0.10;0.10;;;11.30;99.90;;;;;;6208843;23;20032;-73
2023/11/13 05:54:48;;;;;;;0.10;0.10;;;11.50;99.90;;;;;;6234894;23;20027;-72
2023/11/13 05:57:15;;;;;;;0.32;0.10;;;11.60;99.90;;;;;;6234765;23;20394;-72
2023/11/13 05:59:43;;;;;;;0.10;0.10;;;11.70;99.90;;;;;;6233202;23;20366;-72
2023/11/13 06:02:11;;;;;;;0.63;0.20;;;11.90;99.90;;;;;;6207624;23;20479;-72
2023/11/13 06:04:43;;;;;;;0.20;0.20;;;12.10;99.90;;;;;;6204986;23;20024;-72
2023/11/13 06:07:10;;;;;;;1.40;0.43;;;12.30;99.90;;;;;;6180734;23;20615;-72
2023/11/13 06:09:38;;;;;;;0.55;0.40;;;12.50;99.90;;;;;;6208315;23;20125;-72
2023/11/13 06:12:05;;;;;;;0.25;0.25;;;12.70;99.90;;;;;;6210354;23;20024;-72
2023/11/13 06:14:32;;;;;;;0.20;0.20;;;12.80;99.90;;;;;;6235031;23;20666;-72
2023/11/13 06:16:59;;;;;;;1.42;0.40;;;12.90;99.90;;;;;;6210353;23;20323;-72
2023/11/13 06:19:27;;;;;;;0.65;0.30;;;13.10;99.90;;;;;;6222528;23;20063;-72
2023/11/13 06:21:55;;;;;;;0.77;0.40;;;13.20;99.90;;;;;;6209601;23;20486;-72
2023/11/13 06:24:22;;;;;;;0.88;0.38;;;13.30;99.90;;;;;;6233952;23;20032;-72
2023/11/13 06:26:49;;;;;;;1.00;0.40;;;13.30;99.90;;;;;;6233322;23;20020;-72
2023/11/13 06:29:16;;;;;;;0.57;0.40;;;13.40;99.90;;;;;;6206510;23;20078;-72
2023/11/13 06:31:43;;;;;;;2.42;0.93;;;13.40;99.90;;;;;;6233089;23;20453;-72
2023/11/13 06:34:11;;;;;;;0.98;0.70;;;13.50;99.90;;;;;;6208528;23;20099;-72
2023/11/13 06:36:47;;;;;;;1.08;0.60;;;13.60;99.90;;;;;;6227176;23;20020;-72
2023/11/13 06:39:15;;;;;;;1.05;0.38;;;13.60;99.90;;;;;;6207460;23;20089;-72
2023/11/13 06:41:43;;;;;;;1.13;0.60;;;13.70;99.90;;;;;;6235037;23;20028;-72
2023/11/13 06:44:10;;;;;;;0.82;0.40;;;13.70;99.90;;;;;;6234996;23;20512;-72
2023/11/13 06:46:37;;;;;;;1.63;0.77;;;13.80;99.90;;;;;;6207717;23;20020;-72
2023/11/13 06:49:06;;;;;;;1.05;0.63;;;13.80;99.90;;;;;;6234566;23;20031;-72
2023/11/13 06:51:33;;;;;;;0.90;0.52;;;13.80;99.90;;;;;;6233981;23;20016;-73
2023/11/13 06:54:00;;;;;;;0.95;0.73;;;13.80;99.90;;;;;;6235007;23;20036;-71
2023/11/13 06:56:27;;;;;;;0.75;0.40;;;13.80;99.90;;;;;;6230412;23;20019;-72
2023/11/13 06:58:54;;;;;;;1.02;0.30;;;13.90;99.90;;;;;;6232277;23;20028;-72
2023/11/13 07:01:20;;;;;;;0.32;0.30;;;13.90;99.90;;;;;;6231890;23;20028;-71
2023/11/13 07:03:48;;;;;;;0.40;0.40;;;13.90;99.90;;;;;;6230270;23;20043;-71
2023/11/13 07:06:15;;;;;;;0.88;0.65;;;13.90;99.90;;;;;;6178279;23;20020;-73
2023/11/13 07:08:41;;;;;;;0.70;0.20;;;14.00;99.90;;;;;;6184081;23;20090;-72
2023/11/13 07:11:10;;;;;;;0.75;0.40;;;14.00;99.90;;;;;;6232204;23;20528;-72
2023/11/13 07:13:39;;;;;;;0.98;0.50;;;14.00;99.90;;;;;;6232695;23;20059;-72
2023/11/13 07:16:07;;;;;;;0.70;0.40;;;14.10;99.90;;;;;;6203593;23;20016;-71
2023/11/13 07:18:34;;;;;;;1.38;0.47;;;14.10;99.90;;;;;;6205145;23;20490;-72
2023/11/13 07:21:02;;;;;;;1.83;0.60;;;14.10;99.90;;;;;;6234400;23;20070;-72
2023/11/13 07:23:29;;;;;;;0.50;0.40;;;14.10;99.90;;;;;;6235382;23;20477;-72
2023/11/13 07:25:56;;;;;;;0.90;0.47;;;14.10;99.90;;;;;;6208117;23;20509;-72
2023/11/13 07:28:23;;;;;;;1.83;0.40;;;14.10;99.90;;;;;;6232598;23;20079;-72
2023/11/13 07:30:51;;;;;;;0.73;0.40;;;14.10;99.90;;;;;;6230721;23;20020;-71
2023/11/13 07:33:18;;;;;;;0.93;0.40;;;14.10;99.90;;;;;;6234927;23;20034;-72
2023/11/13 07:35:45;;;;;;;0.77;0.30;;;14.10;99.90;;;;;;6235933;23;20090;-72
2023/11/13 07:38:11;;;;;;;0.90;0.50;;;14.10;99.90;;;;;;6184623;23;20028;-72
2023/11/13 07:40:38;;;;;;;1.27;0.50;;;14.20;99.90;;;;;;6209572;23;20020;-72
2023/11/13 07:43:08;;;;;;;0.73;0.38;;;14.10;99.90;;;;;;6210603;23;20020;-72
2023/11/13 07:45:38;;;;;;;0.70;0.50;;;14.20;99.90;;;;;;6209999;23;20021;-72
2023/11/13 07:48:05;;;;;;;1.05;0.63;;;14.20;99.90;;;;;;6210105;23;20505;-72
2023/11/13 07:50:32;;;;;;;0.80;0.30;;;14.20;99.90;;;;;;6233609;23;20089;-72
2023/11/13 07:53:19;;;;;;;0.75;0.50;;;14.20;99.90;;;;;;6231778;23;20068;-72
2023/11/13 07:55:46;;;;;;;1.33;0.70;;;14.30;99.90;;;;;;6232452;23;20106;-72
2023/11/13 07:58:13;;;;;;;0.30;0.30;;;14.30;99.90;;;;;;6210249;23;20082;-72
2023/11/13 08:00:40;;;;;;;2.00;0.80;;;14.30;99.90;;;;;;6235239;23;20593;-72
2023/11/13 08:03:07;;;;;;;0.90;0.45;;;14.30;99.90;;;;;;6233332;23;20024;-72
2023/11/13 08:05:34;;;;;;;1.58;0.50;;;14.30;99.90;;;;;;6229578;23;20050;-72
2023/11/13 08:08:02;;;;;;;3.45;1.02;;;14.30;99.90;;;;;;6208214;23;20020;-72
2023/11/13 08:10:32;;;;;;;2.05;0.55;;;14.40;99.90;;;;;;6210152;23;20455;-72
2023/11/13 08:13:01;;;;;;;1.80;0.60;;;14.40;99.90;;;;;;6237498;23;20019;-71
2023/11/13 08:15:29;;;;;;;0.90;0.38;;;14.40;99.90;;;;;;6238488;23;20099;-71
2023/11/13 08:17:56;;;;;;;1.38;0.40;;;14.30;99.90;;;;;;6237006;23;20020;-72
2023/11/13 08:20:26;;;;;;;2.50;0.63;;;14.40;99.90;;;;;;6234376;23;20016;-71
2023/11/13 08:22:57;;;;;;;1.30;0.52;;;14.40;99.90;;;;;;6233883;23;20463;-72
2023/11/13 08:25:24;;;;;;;0.45;0.30;;;14.40;99.90;;;;;;6234631;23;20020;-72
2023/11/13 08:27:51;;;;;;;1.35;0.60;;;14.40;99.90;;;;;;6234246;23;20500;-72
2023/11/13 08:30:22;;;;;;;0.50;0.30;;;14.40;99.90;;;;;;6234362;23;20023;-72
2023/11/13 08:32:51;;;;;;;0.85;0.50;;;14.40;99.90;;;;;;6212156;23;20098;-72
2023/11/13 08:35:19;;;;;;;0.45;0.32;;;14.50;99.90;;;;;;6186671;23;20560;-72
2023/11/13 08:37:46;;;;;;;1.88;0.93;;;14.50;99.90;;;;;;6211827;23;20081;-72
2023/11/13 08:40:19;;;;;;;1.35;0.70;;;14.60;99.90;;;;;;6238402;23;20514;-72
2023/11/13 08:42:46;;;;;;;1.40;0.50;;;14.70;99.90;;;;;;6238186;23;20063;-72
2023/11/13 08:45:15;;;;;;;1.48;0.50;;;14.70;99.90;;;;;;6238262;23;20024;-72
2023/11/13 08:47:45;;;;;;;0.63;0.22;;;14.70;99.90;;;;;;6237242;23;20024;-72
2023/11/13 08:50:12;;;;;;;0.20;0.20;;;14.70;99.90;;;;;;6210639;23;20035;-72
2023/11/13 08:52:40;;;;;;;1.30;0.50;;;14.60;99.90;;;;;;6237943;23;20030;-72
2023/11/13 08:55:12;;;;;;;1.65;0.52;;;14.70;99.90;;;;;;6236175;23;20024;-72
2023/11/13 08:57:42;;;;;;;0.65;0.50;;;14.70;99.90;;;;;;6236582;23;20103;-72
2023/11/13 09:00:18;;;;;;;0.45;0.30;;;14.70;99.90;;;;;;6212046;23;20020;-72
2023/11/13 09:02:47;;;;;;;0.30;0.30;;;14.70;99.90;;;;;;6237073;23;20035;-72
2023/11/13 09:05:14;;;;;;;0.30;0.30;;;14.70;99.90;;;;;;6235590;23;20020;-71
2023/11/13 09:07:41;;;;;;;0.65;0.38;;;14.80;99.90;;;;;;6235283;23;20602;-72
2023/11/13 09:10:09;;;;;;;0.73;0.30;;;14.80;99.90;;;;;;6230442;23;20552;-72
2023/11/13 09:12:39;;;;;;;1.38;0.57;;;14.90;99.90;;;;;;6229330;23;20070;-72
2023/11/13 09:15:12;;;;;;;0.82;0.40;;;14.90;93.30;;;;;;6226188;23;20020;-72
2023/11/13 09:17:43;;;;;;;;;;;14.90;24.50;;;;;;6203866;23;20020;-72
2023/11/13 09:20:19;;;;;;;0.90;0.52;;;15.00;1.00;;;;;;6229393;23;19973;-72
2023/11/13 09:22:47;;;;;;;1.88;0.77;;;15.00;1.00;;;;;;6229087;23;20024;-72
2023/11/13 09:25:14;;;;;;;1.05;0.60;;;15.10;99.90;;;;;;6202923;23;20881;-72
2023/11/13 09:27:42;;;;;;;2.13;0.90;;;15.00;99.90;;;;;;6229889;23;20110;-72
2023/11/13 09:30:10;;;;;;;1.65;0.80;;;15.00;99.90;;;;;;6229159;23;20027;-72
2023/11/13 09:32:39;;;;;;;2.65;1.00;;;15.00;8.40;;;;;;6201648;23;20035;-72
2023/11/13 09:35:07;;;;;;;1.88;0.85;;;15.00;99.90;;;;;;6224722;23;20522;-72
2023/11/13 09:37:34;;;;;;;2.15;1.00;;;15.10;99.90;;;;;;6224716;23;20061;-72
2023/11/13 09:40:01;;;;;;;2.22;1.33;;;15.20;1.00;;;;;;6228680;23;20024;-72
2023/11/13 09:42:31;;;;;;;2.65;1.35;;;15.30;99.90;;;;;;6232165;23;20082;-73
2023/11/13 09:44:59;;;;;;;3.20;1.17;;;15.40;99.90;;;;;;6206964;23;20024;-71
2023/11/13 09:47:28;;;;;;;1.35;0.73;;;15.40;1.00;;;;;;6235839;23;20027;-71
2023/11/13 09:50:20;;;;;;;2.33;1.02;;;15.40;99.90;;;;;;6235384;23;20082;-71
2023/11/13 09:52:57;;;;;;;5.55;1.60;;;15.40;99.90;;;;;;6207833;23;20020;-71
2023/11/13 09:55:28;;;;;;;3.70;1.30;;;15.40;99.90;;;;;;6208900;23;20070;-71
2023/11/13 09:57:55;;;;;;;5.03;1.58;;;15.30;99.90;;;;;;6207449;23;20020;-71
2023/11/13 10:00:23;;;;;;;4.47;1.80;;;15.30;99.90;;;;;;6232538;23;20031;-71
2023/11/13 10:02:51;;;;;;;3.38;1.70;;;15.20;99.90;;;;;;6233708;23;20016;-71
2023/11/13 10:05:26;;;;;;;5.40;2.10;;;15.20;1.00;;;;;;6230656;23;20024;-71
2023/11/13 10:07:53;;;;;;;7.22;2.60;;;15.20;1.00;;;;;;6233668;23;20469;-71
2023/11/13 10:10:24;;;;;;;5.50;2.42;;;15.20;99.90;;;;;;6237362;23;20462;-71
2023/11/13 10:12:52;;;;;;;5.40;2.08;;;15.30;99.90;;;;;;6233367;23;20020;-71
2023/11/13 10:15:24;;;;;;;6.15;1.92;;;15.40;99.90;;;;;;6233752;23;20098;-71
2023/11/13 10:17:52;;;;;;;5.57;2.58;;;15.40;99.90;;;;;;6234194;23;20396;-71
2023/11/13 10:20:20;;;;;;;7.72;2.20;;;15.60;99.90;;;;;;6235693;23;20020;-71
2023/11/13 10:22:59;;;;;;;8.65;3.50;;;15.70;99.90;;;;;;6232658;23;20084;-71
2023/11/13 10:25:27;;;;;;;5.82;2.47;;;15.80;99.90;;;;;;6218517;23;20475;-71
2023/11/13 10:27:57;;;;;;;4.68;1.88;;;15.80;99.90;;;;;;6207458;23;20462;-71
2023/11/13 10:30:24;;;;;;;5.38;2.42;;;15.90;99.90;;;;;;6210734;23;20031;-71
2023/11/13 10:32:51;;;;;;;4.82;2.15;;;15.90;99.90;;;;;;6235766;23;20754;-71
2023/11/13 10:35:35;;;;;;;8.40;2.92;;;16.00;99.90;;;;;;6235959;23;20020;-71
2023/11/13 10:38:03;;;;;;;11.27;3.53;;;16.10;99.90;;;;;;6237524;23;20078;-71
2023/11/13 10:40:30;;;;;;;7.70;2.53;;;16.10;99.90;;;;;;6237199;23;20321;-71
2023/11/13 10:42:57;;;;;;;5.85;2.30;;;16.20;99.90;;;;;;6236332;23;20336;-71
2023/11/13 10:45:24;;;;;;;7.18;2.53;;;16.20;99.90;;;;;;6236908;23;20028;-71
2023/11/13 10:47:51;;;;;;;6.50;2.38;;;16.30;81.30;;;;;;6235281;23;20430;-71
2023/11/13 10:50:19;;;;;;;10.90;3.63;;;16.30;56.20;;;;;;6235503;23;20540;-71
2023/11/13 10:52:49;;;;;;;8.20;2.85;;;16.30;47.80;;;;;;6237200;23;20031;-71
2023/11/13 10:55:19;;;;;;;9.48;3.80;;;16.20;51.50;;;;;;6236421;23;20118;-72
2023/11/13 10:57:46;;;;;;;13.93;3.78;;;16.20;48.20;;;;;;6235689;23;20447;-71
2023/11/13 11:00:14;;;;;;;11.40;3.42;;;16.10;27.30;;;;;;6237049;23;20658;-71
2023/11/13 11:02:45;;;;;;;7.53;3.22;;;16.10;23.40;;;;;;6237981;23;20039;-71
2023/11/13 11:05:20;;;;;;;9.70;3.75;;;15.90;99.90;;;;;;6235177;23;20050;-71
2023/11/13 11:07:55;;;;;;;10.25;3.38;;;15.00;99.90;;;;;;6209733;23;20066;-71
2023/11/13 11:10:24;;;;;;;7.70;3.28;;;14.50;1.00;;;;;;6235575;23;20032;-71
2023/11/13 11:13:06;;;;;;;7.97;2.70;;;14.00;99.90;;;;;;6237087;23;20111;-71
2023/11/13 11:16:13;;;;;;;8.82;2.63;;;13.70;99.90;;;;;;6210734;23;20352;-71
2023/11/13 11:18:59;;;;;;;8.15;2.97;;;13.50;99.90;;;;;;6237488;23;20024;-71
2023/11/13 11:21:46;;;;;;;5.25;2.10;;;13.40;99.90;;;;;;6220203;23;20443;-71
2023/11/13 11:24:25;;;;;;;6.50;2.58;;;13.30;99.90;;;;;;6230800;23;20098;-71
2023/11/13 11:26:58;;;;;;;7.70;2.50;;;13.20;19.20;;;;;;6231288;23;20028;-71
2023/11/13 11:29:40;;;;;;;7.57;2.40;;;13.10;1.00;;;;;;6231311;23;20096;-71
2023/11/13 11:32:13;;;;;;;5.90;2.15;;;13.10;99.90;;;;;;6234367;23;20063;-71
2023/11/13 11:34:42;;;;;;;6.45;2.40;;;13.00;99.90;;;;;;6235016;23;20026;-72
2023/11/13 11:37:13;;;;;;;7.35;2.47;;;13.10;99.90;;;;;;6235523;23;20016;-71
2023/11/13 11:39:47;;;;;;;8.38;2.28;;;13.10;51.80;;;;;;6235874;23;20656;-71
2023/11/13 11:42:21;;;;;;;4.75;1.67;;;13.10;28.20;;;;;;6235964;23;20016;-72
2023/11/13 11:44:54;;;;;;;4.88;1.50;;;13.20;16.80;;;;;;6236516;23;20020;-71
2023/11/13 11:47:27;;;;;;;;;;;13.30;1.00;;;;;;6234678;23;20020;-71
2023/11/13 11:49:59;;;;;;;4.40;1.70;;;13.40;1.00;;;;;;6204593;23;19919;-71
2023/11/13 11:52:50;;;;;;;5.95;1.92;;;13.50;1.00;;;;;;6232212;23;20024;-71
2023/11/13 11:55:22;;;;;;;5.95;2.00;;;13.60;1.00;;;;;;6233267;23;20024;-71
2023/11/13 11:57:49;;;;;;;5.32;1.45;;;13.80;1.00;;;;;;6237010;23;20498;-71
2023/11/13 12:00:20;;;;;;;4.70;1.50;;;13.90;1.00;;;;;;6235011;23;20071;-71
2023/11/13 12:02:51;;;;;;;2.45;1.55;;;14.00;1.00;;;;;;6234897;23;20124;-71
2023/11/13 12:05:19;;;;;;;2.45;1.00;;;14.10;1.00;;;;;;6234949;23;20020;-71
2023/11/13 12:07:50;;;;;;;5.75;2.08;;;14.30;1.00;;;;;;6235968;23;20358;-70
2023/11/13 12:10:20;;;;;;;3.75;1.77;;;14.50;1.00;;;;;;6234516;23;20051;-71
2023/11/13 12:12:48;;;;;;;4.97;1.83;;;14.70;1.00;;;;;;6236426;23;20474;-71
2023/11/13 12:15:15;;;;;;;5.50;1.88;;;14.90;1.00;;;;;;6209485;23;20032;-71
2023/11/13 12:17:43;;;;;;;3.13;1.30;;;15.10;1.00;;;;;;6236434;23;20026;-71
2023/11/13 12:20:11;;;;;;;4.13;1.45;;;15.40;1.00;;;;;;6231912;23;20028;-70
2023/11/13 12:22:48;;;;;;;2.28;1.20;;;15.80;1.00;;;;;;6231332;23;20050;-71
2023/11/13 12:25:15;;;;;;;4.80;1.50;;;16.00;1.00;;;;;;6230920;23;20024;-71
2023/11/13 12:27:43;;;;;;;3.90;1.63;;;16.30;1.00;;;;;;6225296;23;20023;-71
2023/11/13 12:30:20;;;;;;;7.80;1.65;;;16.50;1.00;;;;;;6176564;23;20055;-71
2023/11/13 12:32:47;;;;;;;6.40;1.80;;;16.30;1.00;;;;;;6200345;23;20020;-70
2023/11/13 12:35:17;;;;;;;5.18;1.50;;;16.30;1.00;;;;;;6174862;23;20101;-71
2023/11/13 12:37:45;;;;;;;3.65;1.30;;;16.10;1.00;;;;;;6226571;23;20048;-71
2023/11/13 12:40:13;;;;;;;4.60;1.85;;;16.00;1.00;;;;;;6227131;23;20028;-71
2023/11/13 12:42:40;;;;;;;4.90;1.40;;;16.10;1.00;;;;;;6202509;23;20020;-72
2023/11/13 12:45:13;;;;;;;4.70;1.45;;;16.20;1.00;;;;;;6176767;23;20031;-73
2023/11/13 12:47:47;;;;;;;6.00;1.75;;;16.20;1.00;;;;;;6227384;23;20439;-72
2023/11/13 12:50:18;;;;;;;4.38;1.60;;;16.20;1.00;;;;;;6225968;23;20482;-72
2023/11/13 12:52:47;;;;;;;3.90;1.60;;;16.20;1.00;;;;;;6227792;23;20382;-71
2023/11/13 12:55:21;;;;;;;3.25;1.00;;;16.30;1.00;;;;;;6226062;23;20024;-70
2023/11/13 12:57:50;;;;;;;4.57;1.40;;;16.30;1.00;;;;;;6202283;23;20094;-70